Time;durP1;ratioP1;P1;durP2;ratioP2;P2;SDS_P1;SDS_P2;PMS_P1;PMS_P2;Temp;Humidity;BMP_temperature;BMP_pressure;BME280_temperature;BME280_humidity;BME280_pressure;Samples;Min_cycle;Max_cycle;Signal;HPM_P1;HPM_P2
2022/03/16 00:01:43;;;;;;;21.37;19.17;;;11.90;99.90;;;;;;5033894;28;20213;-60
2022/03/16 00:04:11;;;;;;;21.73;19.47;;;11.90;99.90;;;;;;5033973;28;20263;-59
2022/03/16 00:06:38;;;;;;;22.53;20.10;;;11.90;99.90;;;;;;5033612;28;20280;-59
2022/03/16 00:09:04;;;;;;;23.67;20.77;;;11.80;99.90;;;;;;5033853;28;20552;-59
2022/03/16 00:11:31;;;;;;;23.17;20.63;;;11.70;99.90;;;;;;5033913;28;20207;-60
2022/03/16 00:13:58;;;;;;;25.17;21.73;;;11.60;99.90;;;;;;5033880;28;20210;-59
2022/03/16 00:16:24;;;;;;;22.70;20.30;;;11.60;99.90;;;;;;5033866;28;20203;-60
2022/03/16 00:18:51;;;;;;;22.07;19.73;;;11.70;99.90;;;;;;5033790;28;20230;-60
2022/03/16 00:21:19;;;;;;;25.30;19.63;;;11.70;99.90;;;;;;5033785;28;20206;-60
2022/03/16 00:23:47;;;;;;;22.73;20.20;;;11.80;99.90;;;;;;5033158;28;20210;-60
2022/03/16 00:26:14;;;;;;;22.30;20.00;;;11.70;99.90;;;;;;5033270;28;20931;-60
2022/03/16 00:28:40;;;;;;;22.60;20.23;;;11.80;99.90;;;;;;5033607;28;20233;-60
2022/03/16 00:31:07;;;;;;;23.77;20.80;;;11.80;99.90;;;;;;5033443;28;20678;-61
2022/03/16 00:33:34;;;;;;;22.33;19.97;;;11.80;99.90;;;;;;5033309;28;20213;-60
2022/03/16 00:36:00;;;;;;;23.63;21.13;;;11.80;99.90;;;;;;5033423;28;20202;-59
2022/03/16 00:38:28;;;;;;;22.20;19.80;;;11.80;99.90;;;;;;5033140;28;20722;-60
2022/03/16 00:40:55;;;;;;;23.20;20.70;;;11.80;99.90;;;;;;5033553;28;20202;-60
2022/03/16 00:43:22;;;;;;;23.80;21.27;;;11.90;99.90;;;;;;5032753;28;20552;-59
2022/03/16 00:45:48;;;;;;;23.47;21.03;;;11.90;99.90;;;;;;5033106;28;20333;-59
2022/03/16 00:48:15;;;;;;;23.23;20.73;;;11.80;99.90;;;;;;5033170;28;20292;-59
2022/03/16 00:50:42;;;;;;;24.80;22.03;;;11.70;99.90;;;;;;5033094;28;20268;-60
2022/03/16 00:53:09;;;;;;;24.83;22.20;;;11.60;99.90;;;;;;5033053;28;20210;-58
2022/03/16 00:55:37;;;;;;;24.53;21.87;;;11.60;99.90;;;;;;5032893;28;20701;-59
2022/03/16 00:58:04;;;;;;;25.67;22.00;;;11.70;99.90;;;;;;5033114;28;20234;-60
2022/03/16 01:00:30;;;;;;;24.30;21.70;;;11.70;99.90;;;;;;5033290;28;20206;-59
2022/03/16 01:02:57;;;;;;;25.07;22.37;;;11.70;99.90;;;;;;5032814;28;20206;-59
2022/03/16 01:05:24;;;;;;;24.27;21.67;;;11.60;99.90;;;;;;5033031;28;20632;-59
2022/03/16 01:07:51;;;;;;;26.13;23.33;;;11.40;99.90;;;;;;5033206;28;20306;-59
2022/03/16 01:10:17;;;;;;;27.23;23.10;;;11.40;99.90;;;;;;5033217;28;20229;-58
2022/03/16 01:12:45;;;;;;;26.97;23.00;;;11.30;99.90;;;;;;5032929;28;20686;-59
2022/03/16 01:15:12;;;;;;;26.70;23.00;;;11.30;99.90;;;;;;5033110;28;20620;-60
2022/03/16 01:17:39;;;;;;;24.60;21.97;;;11.30;99.90;;;;;;5033011;28;20236;-59
2022/03/16 01:20:07;;;;;;;27.20;23.33;;;11.30;99.90;;;;;;5032539;28;20236;-60
2022/03/16 01:22:34;;;;;;;27.07;22.87;;;11.40;99.90;;;;;;5033014;28;20264;-59
2022/03/16 01:25:01;;;;;;;27.30;23.83;;;11.30;99.90;;;;;;5032524;28;20230;-60
2022/03/16 01:27:27;;;;;;;26.23;23.07;;;11.20;99.90;;;;;;5032265;28;20714;-59
2022/03/16 01:29:55;;;;;;;26.07;23.23;;;11.20;99.90;;;;;;5032411;28;20205;-60
2022/03/16 01:32:22;;;;;;;27.47;23.77;;;11.20;99.90;;;;;;5032182;28;20206;-60
2022/03/16 01:34:49;;;;;;;26.23;23.30;;;11.10;99.90;;;;;;5032260;28;20219;-60
2022/03/16 01:37:15;;;;;;;27.37;23.23;;;10.80;99.90;;;;;;5057991;22;20545;-59
2022/03/16 01:39:42;;;;;;;27.47;23.63;;;10.70;99.90;;;;;;5051965;28;20688;-59
2022/03/16 01:42:09;;;;;;;29.23;23.90;;;10.60;99.90;;;;;;5052073;28;20206;-59
2022/03/16 01:44:44;;;;;;;27.90;24.27;;;10.70;99.90;;;;;;5052044;28;20206;-59
2022/03/16 01:47:12;;;;;;;27.93;23.70;;;10.80;99.90;;;;;;5051820;28;20241;-59
2022/03/16 01:49:38;;;;;;;28.10;23.37;;;10.70;99.90;;;;;;5052182;28;20217;-59
2022/03/16 01:52:07;;;;;;;29.50;24.00;;;10.60;99.90;;;;;;5051740;28;20673;-58
2022/03/16 01:54:34;;;;;;;28.53;24.27;;;10.50;99.90;;;;;;5051870;28;20677;-59
2022/03/16 01:57:01;;;;;;;29.70;24.50;;;10.50;99.90;;;;;;5050985;28;20278;-59
2022/03/16 01:59:28;;;;;;;27.93;24.13;;;10.60;99.90;;;;;;5051856;28;20206;-59
2022/03/16 02:01:54;;;;;;;27.53;24.13;;;10.80;99.90;;;;;;5051776;28;20608;-58
2022/03/16 02:04:22;;;;;;;28.80;24.17;;;10.90;99.90;;;;;;5052027;28;20271;-59
2022/03/16 02:06:49;;;;;;;29.50;24.30;;;11.00;99.90;;;;;;5051626;28;20568;-59
2022/03/16 02:09:16;;;;;;;26.33;22.90;;;11.20;99.90;;;;;;5051851;28;20226;-59
2022/03/16 02:11:43;;;;;;;28.00;23.47;;;11.30;99.90;;;;;;5051499;28;20212;-59
2022/03/16 02:14:10;;;;;;;28.33;23.70;;;11.40;99.90;;;;;;5051500;28;20673;-58
2022/03/16 02:16:36;;;;;;;28.30;24.53;;;11.50;99.90;;;;;;5052065;28;20201;-58
2022/03/16 02:19:03;;;;;;;28.47;24.23;;;11.60;99.90;;;;;;5051629;28;20230;-57
2022/03/16 02:21:31;;;;;;;27.80;23.97;;;11.60;99.90;;;;;;5051748;28;20205;-58
2022/03/16 02:24:01;;;;;;;27.57;23.83;;;11.50;99.90;;;;;;5051514;28;20700;-58
2022/03/16 02:26:27;;;;;;;27.17;23.97;;;11.50;99.90;;;;;;5051512;28;20248;-58
2022/03/16 02:28:54;;;;;;;26.73;23.30;;;11.60;99.90;;;;;;5051582;28;20230;-58
2022/03/16 02:31:21;;;;;;;28.57;24.00;;;11.60;99.90;;;;;;5051598;28;20220;-58
2022/03/16 02:33:48;;;;;;;28.13;23.97;;;11.60;99.90;;;;;;5051368;28;20209;-57
2022/03/16 02:36:15;;;;;;;27.77;23.77;;;11.60;99.90;;;;;;5052073;28;20206;-58
2022/03/16 02:38:42;;;;;;;29.07;23.73;;;11.40;99.90;;;;;;5051293;28;20233;-58
2022/03/16 02:41:10;;;;;;;27.53;23.23;;;11.20;99.90;;;;;;5051608;28;20239;-58
2022/03/16 02:43:37;;;;;;;27.30;23.67;;;10.80;99.90;;;;;;5051457;28;20209;-59
2022/03/16 02:46:04;;;;;;;30.30;24.03;;;10.50;99.90;;;;;;5051403;28;20226;-58
2022/03/16 02:48:31;;;;;;;28.20;23.70;;;10.30;99.90;;;;;;5051442;28;20636;-58
2022/03/16 02:50:57;;;;;;;30.77;25.83;;;10.10;99.90;;;;;;5051520;28;20205;-58
2022/03/16 02:53:24;;;;;;;31.27;25.20;;;10.20;99.90;;;;;;5051073;28;20206;-58
2022/03/16 02:55:51;;;;;;;29.03;24.97;;;10.50;99.90;;;;;;5051239;28;20213;-58
2022/03/16 02:58:19;;;;;;;29.90;25.37;;;10.70;99.90;;;;;;5051353;28;20233;-58
2022/03/16 03:00:46;;;;;;;29.63;25.03;;;10.90;99.90;;;;;;5051479;28;20213;-58
2022/03/16 03:03:13;;;;;;;30.07;24.77;;;11.10;99.90;;;;;;5051085;28;20209;-59
2022/03/16 03:05:40;;;;;;;26.80;23.27;;;11.20;99.90;;;;;;5051583;28;20221;-59
2022/03/16 03:08:06;;;;;;;28.13;23.80;;;11.30;99.90;;;;;;5053659;28;20225;-59
2022/03/16 03:10:33;;;;;;;27.57;24.23;;;11.20;99.90;;;;;;5054979;28;20210;-59
2022/03/16 03:13:00;;;;;;;28.60;24.17;;;11.00;99.90;;;;;;5054936;28;20209;-58
2022/03/16 03:15:28;;;;;;;28.20;24.30;;;10.90;99.90;;;;;;5055042;28;20264;-58
2022/03/16 03:17:55;;;;;;;33.53;27.47;;;10.80;99.90;;;;;;5054812;28;20228;-59
2022/03/16 03:20:21;;;;;;;32.67;26.43;;;10.80;99.90;;;;;;5055060;28;20213;-58
2022/03/16 03:22:48;;;;;;;34.83;28.03;;;10.90;99.90;;;;;;5054701;28;20202;-58
2022/03/16 03:25:16;;;;;;;31.57;26.70;;;10.90;99.90;;;;;;5054702;28;20220;-58
2022/03/16 03:27:43;;;;;;;31.17;25.80;;;11.00;99.90;;;;;;5054629;28;20226;-58
2022/03/16 03:30:11;;;;;;;29.20;24.10;;;11.10;99.90;;;;;;5054846;28;20275;-58
2022/03/16 03:32:39;;;;;;;29.67;24.47;;;11.30;99.90;;;;;;5054404;28;20673;-59
2022/03/16 03:35:07;;;;;;;31.60;26.50;;;11.40;99.90;;;;;;5054679;28;20578;-58
2022/03/16 03:37:36;;;;;;;28.83;24.60;;;11.50;99.90;;;;;;5054195;28;20317;-58
2022/03/16 03:40:02;;;;;;;28.93;24.30;;;11.50;99.90;;;;;;5054478;28;20661;-59
2022/03/16 03:42:29;;;;;;;27.30;24.17;;;11.30;99.90;;;;;;5054250;28;20201;-58
2022/03/16 03:44:56;;;;;;;40.40;30.40;;;11.10;99.90;;;;;;5054444;28;20205;-59
2022/03/16 03:47:22;;;;;;;38.87;29.33;;;10.90;99.90;;;;;;5054212;28;20263;-58
2022/03/16 03:49:50;;;;;;;34.77;27.37;;;10.90;99.90;;;;;;5054148;28;20205;-58
2022/03/16 03:52:17;;;;;;;33.00;25.80;;;10.90;99.90;;;;;;5054049;28;20206;-58
2022/03/16 03:54:44;;;;;;;36.27;28.43;;;10.70;99.90;;;;;;5054285;28;20296;-59
2022/03/16 03:57:10;;;;;;;31.43;24.53;;;10.70;99.90;;;;;;5054253;28;20214;-58
2022/03/16 03:59:37;;;;;;;31.23;25.83;;;10.70;99.90;;;;;;5054148;28;20201;-59
2022/03/16 04:02:04;;;;;;;31.57;26.57;;;10.60;99.90;;;;;;5053744;28;20677;-58
2022/03/16 04:04:31;;;;;;;31.10;25.27;;;10.40;99.90;;;;;;5053905;28;20210;-59
2022/03/16 04:06:59;;;;;;;32.33;26.50;;;10.40;99.90;;;;;;5053616;28;20746;-58
2022/03/16 04:09:25;;;;;;;32.33;26.90;;;10.60;99.90;;;;;;5053868;28;20213;-58
2022/03/16 04:11:52;;;;;;;33.87;27.27;;;10.80;99.90;;;;;;5053631;28;20260;-58
2022/03/16 04:14:19;;;;;;;35.43;28.20;;;10.90;99.90;;;;;;5053796;28;20268;-59
2022/03/16 04:16:45;;;;;;;34.63;28.07;;;10.90;99.90;;;;;;5053581;28;20248;-59
2022/03/16 04:19:12;;;;;;;34.20;27.80;;;10.80;99.90;;;;;;5052521;28;20229;-58
2022/03/16 04:21:38;;;;;;;36.30;28.37;;;10.80;99.90;;;;;;5053527;28;20205;-59
2022/03/16 04:24:08;;;;;;;37.90;29.53;;;10.80;99.90;;;;;;5053394;28;20676;-59
2022/03/16 04:26:35;;;;;;;37.40;30.30;;;10.90;99.90;;;;;;5053640;28;20226;-59
2022/03/16 04:29:02;;;;;;;33.27;27.43;;;11.00;99.90;;;;;;5053495;28;20225;-59
2022/03/16 04:31:28;;;;;;;32.90;27.20;;;11.10;99.90;;;;;;5053422;28;20581;-58
2022/03/16 04:33:57;;;;;;;34.33;28.07;;;11.20;99.90;;;;;;5053093;28;20210;-59
2022/03/16 04:36:24;;;;;;;32.80;27.07;;;11.20;99.90;;;;;;5053431;28;20206;-58
2022/03/16 04:38:51;;;;;;;34.57;27.73;;;11.20;99.90;;;;;;5053493;28;20241;-58
2022/03/16 04:41:19;;;;;;;34.80;28.03;;;11.20;99.90;;;;;;5053474;28;20240;-58
2022/03/16 04:43:45;;;;;;;37.03;27.90;;;11.20;99.90;;;;;;5052992;28;20747;-58
2022/03/16 04:46:12;;;;;;;35.77;28.20;;;11.20;99.90;;;;;;5053145;28;20888;-58
2022/03/16 04:48:39;;;;;;;35.43;28.40;;;11.10;99.90;;;;;;5053195;28;20290;-58
2022/03/16 04:51:06;;;;;;;37.00;28.30;;;11.00;99.90;;;;;;5053099;28;20313;-58
2022/03/16 04:53:32;;;;;;;33.43;27.17;;;11.00;99.90;;;;;;5052689;28;20665;-58
2022/03/16 04:55:59;;;;;;;34.40;27.93;;;10.90;99.90;;;;;;5052915;28;20212;-59
2022/03/16 04:58:27;;;;;;;36.37;28.07;;;10.80;99.90;;;;;;5052757;28;20230;-59
2022/03/16 05:00:54;;;;;;;35.40;27.27;;;10.70;99.90;;;;;;5052834;28;20621;-59
2022/03/16 05:03:21;;;;;;;34.27;26.10;;;10.60;99.90;;;;;;5052454;28;20239;-57
2022/03/16 05:05:47;;;;;;;32.43;25.63;;;10.50;99.90;;;;;;5052963;28;20209;-58
2022/03/16 05:08:14;;;;;;;30.83;24.10;;;10.40;99.90;;;;;;5052554;28;20649;-59
2022/03/16 05:10:41;;;;;;;33.73;25.60;;;10.40;99.90;;;;;;5052674;28;20259;-57
2022/03/16 05:13:08;;;;;;;29.73;24.47;;;10.30;99.90;;;;;;5052291;28;20210;-58
2022/03/16 05:15:36;;;;;;;31.50;23.60;;;10.20;99.90;;;;;;5052595;28;20685;-59
2022/03/16 05:18:02;;;;;;;31.57;23.50;;;10.20;99.90;;;;;;5052622;28;20225;-59
2022/03/16 05:20:29;;;;;;;29.80;24.27;;;10.10;99.90;;;;;;5052712;28;20209;-57
2022/03/16 05:22:56;;;;;;;29.20;23.90;;;10.00;99.90;;;;;;5052399;28;20594;-58
2022/03/16 05:25:24;;;;;;;28.33;22.47;;;10.00;99.90;;;;;;5052340;28;20609;-59
2022/03/16 05:27:52;;;;;;;29.57;23.20;;;9.90;99.90;;;;;;5051963;28;20241;-57
2022/03/16 05:30:20;;;;;;;28.40;23.17;;;9.90;99.90;;;;;;5052326;28;20335;-59
2022/03/16 05:32:51;;;;;;;28.30;23.00;;;9.90;99.90;;;;;;5052094;28;20209;-59
2022/03/16 05:35:18;;;;;;;29.20;21.77;;;9.80;99.90;;;;;;5052183;28;20217;-59
2022/03/16 05:37:45;;;;;;;30.87;23.17;;;9.70;99.90;;;;;;5052040;28;20256;-59
2022/03/16 05:40:12;;;;;;;27.93;22.80;;;9.70;99.90;;;;;;5051836;28;20511;-59
2022/03/16 05:42:39;;;;;;;26.30;20.80;;;9.70;99.90;;;;;;5051726;28;20271;-58
2022/03/16 05:45:08;;;;;;;27.00;21.87;;;9.60;99.90;;;;;;5052254;28;20201;-58
2022/03/16 05:47:35;;;;;;;28.40;22.53;;;9.60;99.90;;;;;;5051741;28;20654;-58
2022/03/16 05:50:04;;;;;;;28.30;22.57;;;9.50;99.90;;;;;;5051808;28;20688;-59
2022/03/16 05:52:31;;;;;;;27.47;22.20;;;9.60;99.90;;;;;;5051750;28;20205;-59
2022/03/16 05:54:59;;;;;;;26.23;21.03;;;9.70;99.90;;;;;;5052022;28;20201;-58
2022/03/16 05:57:26;;;;;;;30.20;22.83;;;9.60;99.90;;;;;;5051902;28;20229;-58
2022/03/16 05:59:53;;;;;;;27.17;21.43;;;9.60;99.90;;;;;;5051917;28;20205;-58
2022/03/16 06:02:20;;;;;;;27.97;22.27;;;9.50;99.90;;;;;;5051520;28;20673;-59
2022/03/16 06:04:47;;;;;;;28.37;21.67;;;9.50;99.90;;;;;;5051722;28;20305;-58
2022/03/16 06:07:15;;;;;;;28.00;20.97;;;9.40;99.90;;;;;;5051763;28;20225;-59
2022/03/16 06:09:41;;;;;;;27.07;21.43;;;9.40;99.90;;;;;;5051468;28;20214;-59
2022/03/16 06:12:09;;;;;;;27.53;21.97;;;9.40;99.90;;;;;;5051690;28;20210;-58
2022/03/16 06:14:36;;;;;;;26.40;20.97;;;9.30;99.90;;;;;;5051804;28;20209;-58
2022/03/16 06:17:03;;;;;;;25.90;20.70;;;9.30;99.90;;;;;;5051430;28;20581;-58
2022/03/16 06:19:30;;;;;;;25.13;20.63;;;9.40;99.90;;;;;;5051633;28;20209;-59
2022/03/16 06:21:57;;;;;;;25.53;20.77;;;9.30;99.90;;;;;;5051503;28;20206;-58
2022/03/16 06:24:25;;;;;;;28.03;21.20;;;9.30;99.90;;;;;;5051354;28;20206;-58
2022/03/16 06:26:52;;;;;;;24.87;20.33;;;9.20;99.90;;;;;;5051342;28;20597;-58
2022/03/16 06:29:18;;;;;;;24.53;19.60;;;9.10;99.90;;;;;;5051574;28;20576;-59
2022/03/16 06:31:45;;;;;;;25.30;20.20;;;9.20;99.90;;;;;;5051772;28;20283;-58
2022/03/16 06:34:12;;;;;;;26.63;20.23;;;9.20;99.90;;;;;;5051359;28;20263;-58
2022/03/16 06:36:38;;;;;;;26.17;21.03;;;9.20;99.90;;;;;;5051315;28;20623;-59
2022/03/16 06:39:05;;;;;;;26.20;21.17;;;9.20;99.90;;;;;;5051193;28;20679;-58
2022/03/16 06:41:33;;;;;;;26.70;21.00;;;9.30;99.90;;;;;;5051612;28;20271;-59
2022/03/16 06:44:00;;;;;;;25.90;20.40;;;9.50;99.90;;;;;;5055164;28;20210;-59
2022/03/16 06:46:27;;;;;;;25.63;20.53;;;9.50;99.90;;;;;;5055301;28;20669;-59
2022/03/16 06:48:54;;;;;;;24.83;20.80;;;9.50;99.90;;;;;;5055414;28;20709;-59
2022/03/16 06:51:21;;;;;;;25.93;20.87;;;9.60;99.90;;;;;;5055541;28;20274;-59
2022/03/16 06:53:47;;;;;;;24.97;20.43;;;9.60;99.90;;;;;;5054891;28;20213;-59
2022/03/16 06:56:14;;;;;;;25.43;21.13;;;9.60;99.90;;;;;;5055303;28;20205;-59
2022/03/16 06:58:42;;;;;;;23.57;19.70;;;9.70;99.90;;;;;;5055099;28;20295;-59
2022/03/16 07:01:09;;;;;;;25.00;19.77;;;9.70;99.90;;;;;;5055097;28;20259;-59
2022/03/16 07:03:36;;;;;;;25.47;20.50;;;9.80;99.90;;;;;;5054808;28;20210;-58
2022/03/16 07:06:03;;;;;;;26.77;20.47;;;9.80;99.90;;;;;;5055369;28;20229;-59
2022/03/16 07:08:29;;;;;;;25.80;20.10;;;9.80;99.90;;;;;;5055014;28;20264;-59
2022/03/16 07:10:56;;;;;;;24.57;20.40;;;9.80;99.90;;;;;;5055158;28;20275;-58
2022/03/16 07:13:23;;;;;;;27.07;20.47;;;9.90;99.90;;;;;;5054525;28;20210;-59
2022/03/16 07:15:51;;;;;;;25.03;21.03;;;10.00;99.90;;;;;;5054684;28;20255;-60
2022/03/16 07:18:19;;;;;;;27.23;21.33;;;10.00;99.90;;;;;;5054762;28;20604;-58
2022/03/16 07:20:48;;;;;;;27.10;21.53;;;10.10;99.90;;;;;;5054697;28;20205;-59
2022/03/16 07:23:17;;;;;;;37.27;24.93;;;10.10;99.90;;;;;;5054524;28;20292;-58
2022/03/16 07:25:46;;;;;;;28.67;22.17;;;10.20;99.90;;;;;;5054644;28;20296;-58
2022/03/16 07:28:13;;;;;;;26.73;19.80;;;10.30;99.90;;;;;;5054472;28;20237;-58
2022/03/16 07:30:40;;;;;;;25.87;20.80;;;10.30;99.90;;;;;;5054402;28;20240;-59
2022/03/16 07:33:08;;;;;;;26.33;20.70;;;10.40;99.90;;;;;;5054164;28;20696;-59
2022/03/16 07:35:36;;;;;;;26.23;19.57;;;10.50;99.90;;;;;;5054541;28;20236;-58
2022/03/16 07:38:03;;;;;;;26.27;20.43;;;10.50;99.90;;;;;;5054788;28;20644;-59
2022/03/16 07:40:31;;;;;;;23.93;19.70;;;10.60;99.90;;;;;;5054464;28;20205;-58
2022/03/16 07:42:58;;;;;;;24.50;18.90;;;10.60;99.90;;;;;;5054141;28;20210;-58
2022/03/16 07:45:25;;;;;;;24.10;19.57;;;10.60;99.90;;;;;;5054074;28;20633;-58
2022/03/16 07:47:53;;;;;;;25.60;19.43;;;10.70;99.90;;;;;;5054107;28;20291;-59
2022/03/16 07:50:21;;;;;;;26.27;20.40;;;10.70;99.90;;;;;;5054365;28;20301;-58
2022/03/16 07:52:48;;;;;;;23.17;18.33;;;10.80;99.90;;;;;;5054230;28;20206;-59
2022/03/16 07:55:16;;;;;;;26.30;19.50;;;10.90;99.90;;;;;;5054224;28;20205;-58
2022/03/16 07:57:43;;;;;;;22.70;18.90;;;11.00;99.90;;;;;;5053985;28;20280;-58
2022/03/16 08:00:12;;;;;;;21.83;17.73;;;11.00;99.90;;;;;;5053767;28;20211;-58
2022/03/16 08:02:39;;;;;;;22.80;17.90;;;11.00;99.90;;;;;;5054044;28;20251;-60
2022/03/16 08:05:06;;;;;;;22.13;18.43;;;10.90;99.90;;;;;;5054078;28;20209;-62
2022/03/16 08:07:36;;;;;;;21.47;17.70;;;10.80;99.90;;;;;;5053888;28;20241;-62
2022/03/16 08:10:04;;;;;;;22.83;18.07;;;10.80;99.90;;;;;;5054235;28;20247;-60
2022/03/16 08:12:31;;;;;;;21.07;16.83;;;10.70;99.90;;;;;;5053803;28;20209;-59
2022/03/16 08:15:00;;;;;;;21.17;16.90;;;10.80;99.90;;;;;;5054198;28;20202;-60
2022/03/16 08:17:26;;;;;;;20.57;16.53;;;10.80;99.90;;;;;;5053619;28;20237;-60
2022/03/16 08:19:53;;;;;;;19.17;15.10;;;10.80;99.90;;;;;;5053728;28;20212;-60
2022/03/16 08:22:27;;;;;;;18.10;15.77;;;10.70;99.90;;;;;;5053682;28;20202;-60
2022/03/16 08:24:56;;;;;;;18.37;15.47;;;10.50;99.90;;;;;;5053683;28;20210;-59
2022/03/16 08:27:24;;;;;;;19.17;15.03;;;10.50;99.90;;;;;;5053979;28;20234;-59
2022/03/16 08:29:50;;;;;;;18.67;15.13;;;10.40;99.90;;;;;;5054068;28;20213;-60
2022/03/16 08:32:17;;;;;;;18.00;15.30;;;10.50;99.90;;;;;;5053717;28;20624;-60
2022/03/16 08:34:45;;;;;;;19.57;15.73;;;10.50;99.90;;;;;;5053708;28;20206;-60
2022/03/16 08:37:12;;;;;;;17.73;14.83;;;10.60;99.90;;;;;;5053419;28;20209;-60
2022/03/16 08:39:39;;;;;;;18.47;15.20;;;10.60;99.90;;;;;;5053468;28;20206;-60
2022/03/16 08:42:10;;;;;;;17.67;14.80;;;10.70;99.90;;;;;;5053712;28;20213;-59
2022/03/16 08:44:37;;;;;;;20.07;16.00;;;10.80;99.90;;;;;;5053743;28;20300;-59
2022/03/16 08:47:04;;;;;;;17.93;14.67;;;10.80;99.90;;;;;;5053301;28;20209;-59
2022/03/16 08:49:31;;;;;;;19.07;15.10;;;11.00;99.90;;;;;;5053201;28;20262;-59
2022/03/16 08:51:58;;;;;;;17.60;15.10;;;11.00;99.90;;;;;;5053029;28;20609;-59
2022/03/16 08:54:25;;;;;;;18.07;14.17;;;11.00;99.90;;;;;;5052967;28;20584;-60
2022/03/16 08:56:52;;;;;;;18.00;15.23;;;11.00;99.90;;;;;;5053096;28;20581;-59
2022/03/16 08:59:21;;;;;;;17.13;15.20;;;11.10;99.90;;;;;;5053431;28;20331;-60
2022/03/16 09:01:47;;;;;;;16.07;14.20;;;11.20;99.90;;;;;;5053205;28;20739;-59
2022/03/16 09:04:14;;;;;;;18.20;15.53;;;11.30;99.90;;;;;;5052948;28;20220;-60
2022/03/16 09:06:41;;;;;;;17.47;14.73;;;11.30;99.90;;;;;;5052526;28;20255;-60
2022/03/16 09:09:07;;;;;;;17.27;15.30;;;11.30;99.90;;;;;;5052667;28;20600;-58
2022/03/16 09:11:35;;;;;;;19.50;15.60;;;11.40;99.90;;;;;;5052635;28;20210;-58
2022/03/16 09:14:02;;;;;;;18.33;15.47;;;11.60;99.90;;;;;;5052430;28;20202;-58
2022/03/16 09:16:30;;;;;;;18.60;16.30;;;11.70;99.90;;;;;;5052602;28;20260;-58
2022/03/16 09:18:57;;;;;;;17.53;15.13;;;11.70;99.90;;;;;;5052619;28;20222;-57
2022/03/16 09:21:25;;;;;;;17.83;15.53;;;11.70;99.90;;;;;;5052451;28;20760;-58
2022/03/16 09:23:52;;;;;;;18.17;15.47;;;11.80;99.90;;;;;;5052555;28;20210;-57
2022/03/16 09:26:21;;;;;;;16.60;14.80;;;11.90;99.90;;;;;;5052494;28;20606;-57
2022/03/16 09:28:47;;;;;;;18.10;15.27;;;12.00;99.90;;;;;;5052166;28;20231;-57
2022/03/16 09:31:14;;;;;;;17.97;14.73;;;12.00;99.90;;;;;;5052516;28;20236;-58
2022/03/16 09:33:42;;;;;;;19.50;15.13;;;11.90;99.90;;;;;;5051982;28;20305;-58
2022/03/16 09:36:09;;;;;;;20.67;15.43;;;11.90;99.90;;;;;;5052014;28;20650;-58
2022/03/16 09:38:36;;;;;;;18.50;14.97;;;12.00;99.90;;;;;;5052131;28;20788;-58
2022/03/16 09:41:03;;;;;;;18.20;14.93;;;12.10;99.90;;;;;;5052066;28;20259;-58
2022/03/16 09:43:32;;;;;;;19.27;13.97;;;12.20;99.90;;;;;;5052029;28;20201;-58
2022/03/16 09:46:07;;;;;;;16.77;14.27;;;12.30;99.90;;;;;;5052042;28;20209;-58
2022/03/16 09:48:34;;;;;;;17.23;15.13;;;12.40;99.90;;;;;;5052377;28;20233;-58
2022/03/16 09:51:02;;;;;;;16.73;14.67;;;12.60;99.90;;;;;;5052476;28;20275;-58
2022/03/16 09:53:29;;;;;;;16.97;13.60;;;12.70;99.90;;;;;;5052103;28;20219;-58
2022/03/16 09:55:56;;;;;;;16.27;12.60;;;12.90;99.90;;;;;;5052003;28;20267;-58
2022/03/16 09:58:23;;;;;;;17.77;14.43;;;13.00;99.90;;;;;;5051968;28;20225;-58
2022/03/16 10:00:52;;;;;;;14.67;12.93;;;13.10;99.90;;;;;;5051668;28;20206;-59
2022/03/16 10:03:22;;;;;;;16.13;14.03;;;13.20;99.90;;;;;;5052815;28;20206;-58
2022/03/16 10:05:50;;;;;;;15.63;13.97;;;13.10;99.90;;;;;;5053847;28;20252;-56
2022/03/16 10:08:26;;;;;;;35.87;32.07;;;13.20;99.90;;;;;;5053644;28;20283;-58
2022/03/16 10:13:49;;;;;;;13.93;12.43;;;13.60;99.90;;;;;;5051846;28;20700;-57
2022/03/16 10:16:16;;;;;;;16.10;13.43;;;13.70;99.90;;;;;;5051874;28;20244;-57
2022/03/16 10:18:46;;;;;;;15.00;13.13;;;13.90;99.90;;;;;;5055387;28;20320;-57
2022/03/16 10:21:13;;;;;;;14.83;13.23;;;13.80;99.90;;;;;;5057795;28;20233;-57
2022/03/16 10:23:45;;;;;;;14.13;12.63;;;13.90;99.90;;;;;;5058378;28;20205;-57
2022/03/16 10:26:16;;;;;;;14.53;12.93;;;13.90;99.90;;;;;;5056143;28;20210;-57
2022/03/16 10:28:45;;;;;;;13.93;12.33;;;13.90;99.90;;;;;;5055785;28;20324;-58
2022/03/16 10:31:14;;;;;;;13.63;12.20;;;14.00;99.90;;;;;;5055872;28;20581;-58
2022/03/16 10:33:47;;;;;;;15.87;13.53;;;14.20;99.90;;;;;;5055533;28;20206;-58
2022/03/16 10:36:15;;;;;;;14.60;12.50;;;14.30;99.90;;;;;;5055578;28;20209;-58
2022/03/16 10:38:45;;;;;;;14.30;12.80;;;14.40;99.90;;;;;;5055395;28;20642;-58
2022/03/16 10:46:46;;;;;;;15.40;13.30;;;14.00;99.90;;;;;;5055464;28;20530;-58
2022/03/16 10:49:16;;;;;;;14.47;12.97;;;14.00;99.90;;;;;;5055213;28;20603;-58
2022/03/16 10:51:44;;;;;;;13.90;12.40;;;14.00;99.90;;;;;;5055400;28;20263;-58
2022/03/16 10:54:14;;;;;;;13.30;11.90;;;14.00;99.90;;;;;;5055200;28;20283;-57
2022/03/16 10:56:42;;;;;;;15.37;12.47;;;14.00;99.90;;;;;;5055063;28;20620;-58
2022/03/16 10:59:09;;;;;;;15.93;13.53;;;14.10;99.90;;;;;;5054772;28;20640;-58
2022/03/16 11:01:38;;;;;;;13.93;12.43;;;13.80;99.90;;;;;;5055178;28;20228;-59
2022/03/16 11:04:07;;;;;;;14.50;13.00;;;13.70;99.90;;;;;;5054993;28;20271;-57
2022/03/16 11:06:35;;;;;;;16.00;13.63;;;13.90;99.90;;;;;;5055055;28;20206;-57
2022/03/16 11:09:03;;;;;;;18.43;14.20;;;14.10;99.90;;;;;;5054777;28;20401;-57
2022/03/16 11:14:13;;;;;;;14.93;13.00;;;14.50;99.90;;;;;;5031798;28;20205;-57
2022/03/16 11:16:41;;;;;;;15.30;13.07;;;14.80;99.90;;;;;;5054807;28;20209;-57
2022/03/16 11:19:09;;;;;;;13.67;12.23;;;15.10;99.90;;;;;;5054817;28;20634;-57
2022/03/16 11:21:44;;;;;;;16.13;13.30;;;15.20;99.90;;;;;;5054841;28;20708;-57
2022/03/16 11:24:17;;;;;;;14.47;12.97;;;15.10;99.90;;;;;;5054852;28;20201;-57
2022/03/16 11:27:02;;;;;;;13.67;12.23;;;14.90;99.90;;;;;;5054713;28;20213;-57
2022/03/16 11:29:40;;;;;;;14.07;12.67;;;15.00;99.90;;;;;;5053964;28;20651;-57
2022/03/16 11:32:11;;;;;;;14.37;12.30;;;15.20;99.90;;;;;;5054915;28;20214;-57
2022/03/16 11:34:38;;;;;;;13.60;12.20;;;15.40;99.90;;;;;;5054689;28;20210;-57
2022/03/16 11:37:07;;;;;;;12.43;10.63;;;15.60;99.90;;;;;;5054369;28;20708;-58
2022/03/16 11:39:43;;;;;;;11.07;9.87;;;15.70;99.90;;;;;;5054806;28;20213;-58
2022/03/16 11:42:13;;;;;;;13.10;11.70;;;15.60;99.90;;;;;;5054568;28;20244;-60
2022/03/16 11:44:40;;;;;;;14.77;13.18;;;15.90;99.90;;;;;;5049804;28;20440;-59
2022/03/16 11:47:40;;;;;;;14.10;11.50;;;15.70;99.90;;;;;;5054090;28;20213;-60
2022/03/16 11:50:11;;;;;;;14.00;11.57;;;15.50;99.90;;;;;;4992711;28;20231;-65
2022/03/16 11:52:59;;;;;;;12.80;11.50;;;15.50;99.90;;;;;;4987014;28;20682;-64
2022/03/16 11:55:39;;;;;;;12.87;11.47;;;15.30;99.90;;;;;;5024024;28;20580;-62
2022/03/16 11:58:17;;;;;;;14.47;11.30;;;15.40;99.90;;;;;;5053318;28;20728;-60
2022/03/16 12:00:44;;;;;;;13.00;11.17;;;15.60;99.90;;;;;;5053244;28;20209;-60
2022/03/16 12:03:21;;;;;;;12.87;10.50;;;15.80;99.90;;;;;;5053867;28;20557;-59
2022/03/16 12:05:58;;;;;;;13.80;11.40;;;15.90;99.90;;;;;;5051956;28;20296;-60
2022/03/16 12:08:30;;;;;;;13.40;11.20;;;16.10;99.90;;;;;;5052518;28;20232;-62
2022/03/16 12:13:45;;;;;;;12.23;10.80;;;16.40;99.90;;;;;;5053323;28;20611;-61
2022/03/16 12:16:14;;;;;;;14.27;10.83;;;16.60;99.90;;;;;;5053242;28;20624;-61
2022/03/16 12:18:41;;;;;;;13.10;10.63;;;16.70;99.90;;;;;;5053156;28;20656;-60
2022/03/16 12:21:10;;;;;;;12.20;10.90;;;16.50;99.90;;;;;;5053866;28;20297;-61
2022/03/16 12:23:49;;;;;;;12.50;11.20;;;16.40;99.90;;;;;;5053463;28;20291;-60
2022/03/16 12:26:20;;;;;;;13.70;11.50;;;16.50;99.90;;;;;;5053623;28;20300;-60
2022/03/16 12:28:59;;;;;;;12.10;10.80;;;16.80;99.90;;;;;;5053363;28;20574;-60
2022/03/16 12:31:26;;;;;;;12.07;10.63;;;17.00;99.90;;;;;;5053760;28;20300;-60
2022/03/16 12:33:55;;;;;;;11.33;9.77;;;17.10;99.90;;;;;;5053552;28;20209;-60
2022/03/16 12:36:24;;;;;;;13.20;10.97;;;17.20;99.90;;;;;;5053882;28;20214;-60
2022/03/16 12:38:52;;;;;;;12.00;10.80;;;17.00;99.90;;;;;;5053229;28;20236;-60
2022/03/16 12:44:08;;;;;;;16.00;10.60;;;16.30;99.90;;;;;;5053178;28;20248;-61
2022/03/16 12:46:42;;;;;;;12.10;10.90;;;15.80;99.90;;;;;;5053231;28;20598;-61
2022/03/16 12:49:11;;;;;;;13.27;11.10;;;15.70;99.90;;;;;;5053017;28;20710;-59